sensor_id;sensor_type;location;lat;lon;timestamp;P1;durP1;ratioP1;P2;durP2;ratioP2
6987;SDS011;3534;49.960;8.018;2023-05-10T00:01:42;1.87;;;0.43;;
6987;SDS011;3534;49.960;8.018;2023-05-10T00:04:09;1.80;;;0.50;;
6987;SDS011;3534;49.960;8.018;2023-05-10T00:06:36;0.60;;;0.40;;
6987;SDS011;3534;49.960;8.018;2023-05-10T00:09:02;0.60;;;0.40;;
6987;SDS011;3534;49.960;8.018;2023-05-10T00:11:29;0.50;;;0.40;;
6987;SDS011;3534;49.960;8.018;2023-05-10T00:13:56;0.60;;;0.50;;
6987;SDS011;3534;49.960;8.018;2023-05-10T00:16:23;0.60;;;0.40;;
6987;SDS011;3534;49.960;8.018;2023-05-10T00:18:50;0.60;;;0.40;;
6987;SDS011;3534;49.960;8.018;2023-05-10T00:21:17;3.80;;;0.60;;
6987;SDS011;3534;49.960;8.018;2023-05-10T00:23:44;7.80;;;0.50;;
6987;SDS011;3534;49.960;8.018;2023-05-10T00:26:10;0.83;;;0.60;;
6987;SDS011;3534;49.960;8.018;2023-05-10T00:28:37;0.60;;;0.40;;
6987;SDS011;3534;49.960;8.018;2023-05-10T00:31:04;4.10;;;0.40;;
6987;SDS011;3534;49.960;8.018;2023-05-10T00:33:30;0.70;;;0.50;;
6987;SDS011;3534;49.960;8.018;2023-05-10T00:35:58;0.60;;;0.40;;
6987;SDS011;3534;49.960;8.018;2023-05-10T00:38:25;1.80;;;0.40;;
6987;SDS011;3534;49.960;8.018;2023-05-10T00:40:52;0.63;;;0.47;;
6987;SDS011;3534;49.960;8.018;2023-05-10T00:43:18;0.60;;;0.50;;
6987;SDS011;3534;49.960;8.018;2023-05-10T00:45:45;1.57;;;0.60;;
6987;SDS011;3534;49.960;8.018;2023-05-10T00:48:12;0.70;;;0.40;;
6987;SDS011;3534;49.960;8.018;2023-05-10T00:50:39;0.93;;;0.60;;
6987;SDS011;3534;49.960;8.018;2023-05-10T00:53:07;1.40;;;0.40;;
6987;SDS011;3534;49.960;8.018;2023-05-10T00:55:35;0.93;;;0.40;;
6987;SDS011;3534;49.960;8.018;2023-05-10T00:58:02;0.50;;;0.40;;
6987;SDS011;3534;49.960;8.018;2023-05-10T01:00:29;0.60;;;0.50;;
6987;SDS011;3534;49.960;8.018;2023-05-10T01:02:56;1.73;;;0.40;;
6987;SDS011;3534;49.960;8.018;2023-05-10T01:05:22;3.13;;;1.33;;
6987;SDS011;3534;49.960;8.018;2023-05-10T01:07:49;4.33;;;0.40;;
6987;SDS011;3534;49.960;8.018;2023-05-10T01:10:18;0.90;;;0.50;;
6987;SDS011;3534;49.960;8.018;2023-05-10T01:12:45;0.60;;;0.40;;
6987;SDS011;3534;49.960;8.018;2023-05-10T01:15:13;0.57;;;0.40;;
6987;SDS011;3534;49.960;8.018;2023-05-10T01:17:42;1.10;;;0.50;;
6987;SDS011;3534;49.960;8.018;2023-05-10T01:20:12;0.80;;;0.47;;
6987;SDS011;3534;49.960;8.018;2023-05-10T01:23:05;9.40;;;0.47;;
6987;SDS011;3534;49.960;8.018;2023-05-10T01:26:04;3.13;;;0.60;;
6987;SDS011;3534;49.960;8.018;2023-05-10T01:28:47;0.97;;;0.70;;
6987;SDS011;3534;49.960;8.018;2023-05-10T01:31:40;3.60;;;0.70;;
6987;SDS011;3534;49.960;8.018;2023-05-10T01:34:29;1.40;;;0.70;;
6987;SDS011;3534;49.960;8.018;2023-05-10T01:37:02;0.60;;;0.40;;
6987;SDS011;3534;49.960;8.018;2023-05-10T01:39:32;1.47;;;0.40;;
6987;SDS011;3534;49.960;8.018;2023-05-10T01:42:07;0.70;;;0.70;;
6987;SDS011;3534;49.960;8.018;2023-05-10T01:44:37;1.10;;;0.60;;
6987;SDS011;3534;49.960;8.018;2023-05-10T01:47:10;0.90;;;0.50;;
6987;SDS011;3534;49.960;8.018;2023-05-10T01:49:40;0.80;;;0.50;;
6987;SDS011;3534;49.960;8.018;2023-05-10T01:52:12;0.70;;;0.50;;
6987;SDS011;3534;49.960;8.018;2023-05-10T01:54:42;3.83;;;0.60;;
6987;SDS011;3534;49.960;8.018;2023-05-10T01:57:14;0.60;;;0.40;;
6987;SDS011;3534;49.960;8.018;2023-05-10T01:59:43;0.70;;;0.60;;
6987;SDS011;3534;49.960;8.018;2023-05-10T02:02:15;0.80;;;0.50;;
6987;SDS011;3534;49.960;8.018;2023-05-10T02:04:44;0.60;;;0.50;;
6987;SDS011;3534;49.960;8.018;2023-05-10T02:07:12;1.33;;;0.87;;
6987;SDS011;3534;49.960;8.018;2023-05-10T02:09:40;2.73;;;0.40;;
6987;SDS011;3534;49.960;8.018;2023-05-10T02:12:12;0.70;;;0.50;;
6987;SDS011;3534;49.960;8.018;2023-05-10T02:14:40;0.90;;;0.70;;
6987;SDS011;3534;49.960;8.018;2023-05-10T02:17:08;0.97;;;0.40;;
6987;SDS011;3534;49.960;8.018;2023-05-10T02:19:39;0.70;;;0.50;;
6987;SDS011;3534;49.960;8.018;2023-05-10T02:22:07;0.80;;;0.50;;
6987;SDS011;3534;49.960;8.018;2023-05-10T02:24:35;0.80;;;0.50;;
6987;SDS011;3534;49.960;8.018;2023-05-10T02:27:04;2.50;;;0.50;;
6987;SDS011;3534;49.960;8.018;2023-05-10T02:29:32;3.63;;;0.53;;
6987;SDS011;3534;49.960;8.018;2023-05-10T02:31:59;1.27;;;0.47;;
6987;SDS011;3534;49.960;8.018;2023-05-10T02:34:27;1.47;;;0.50;;
6987;SDS011;3534;49.960;8.018;2023-05-10T02:36:55;1.53;;;0.60;;
6987;SDS011;3534;49.960;8.018;2023-05-10T02:39:24;3.03;;;1.30;;
6987;SDS011;3534;49.960;8.018;2023-05-10T02:41:53;1.00;;;0.70;;
6987;SDS011;3534;49.960;8.018;2023-05-10T02:44:20;0.70;;;0.50;;
6987;SDS011;3534;49.960;8.018;2023-05-10T02:46:49;1.33;;;0.57;;
6987;SDS011;3534;49.960;8.018;2023-05-10T02:49:16;3.63;;;0.90;;
6987;SDS011;3534;49.960;8.018;2023-05-10T02:51:43;2.87;;;0.70;;
6987;SDS011;3534;49.960;8.018;2023-05-10T02:54:18;0.70;;;0.43;;
6987;SDS011;3534;49.960;8.018;2023-05-10T02:56:47;1.63;;;0.60;;
6987;SDS011;3534;49.960;8.018;2023-05-10T02:59:17;2.30;;;0.90;;
6987;SDS011;3534;49.960;8.018;2023-05-10T03:01:43;0.90;;;0.70;;
6987;SDS011;3534;49.960;8.018;2023-05-10T03:04:10;0.90;;;0.80;;
6987;SDS011;3534;49.960;8.018;2023-05-10T03:06:37;0.60;;;0.50;;
6987;SDS011;3534;49.960;8.018;2023-05-10T03:09:04;2.03;;;0.60;;
6987;SDS011;3534;49.960;8.018;2023-05-10T03:11:37;10.67;;;0.87;;
6987;SDS011;3534;49.960;8.018;2023-05-10T03:14:16;1.20;;;0.67;;
6987;SDS011;3534;49.960;8.018;2023-05-10T03:16:52;0.70;;;0.60;;
6987;SDS011;3534;49.960;8.018;2023-05-10T03:19:24;2.53;;;0.73;;
6987;SDS011;3534;49.960;8.018;2023-05-10T03:21:53;3.27;;;1.10;;
6987;SDS011;3534;49.960;8.018;2023-05-10T03:24:25;2.87;;;1.30;;
6987;SDS011;3534;49.960;8.018;2023-05-10T03:26:55;1.60;;;1.00;;
6987;SDS011;3534;49.960;8.018;2023-05-10T03:29:27;1.80;;;0.57;;
6987;SDS011;3534;49.960;8.018;2023-05-10T03:31:55;2.63;;;1.10;;
6987;SDS011;3534;49.960;8.018;2023-05-10T03:34:24;0.80;;;0.80;;
6987;SDS011;3534;49.960;8.018;2023-05-10T03:36:51;1.63;;;0.90;;
6987;SDS011;3534;49.960;8.018;2023-05-10T03:39:17;1.07;;;0.97;;
6987;SDS011;3534;49.960;8.018;2023-05-10T03:41:46;3.40;;;0.77;;
6987;SDS011;3534;49.960;8.018;2023-05-10T03:44:14;1.83;;;0.70;;
6987;SDS011;3534;49.960;8.018;2023-05-10T03:46:41;1.63;;;0.77;;
6987;SDS011;3534;49.960;8.018;2023-05-10T03:49:08;5.40;;;0.77;;
6987;SDS011;3534;49.960;8.018;2023-05-10T03:51:34;0.70;;;0.60;;
6987;SDS011;3534;49.960;8.018;2023-05-10T03:54:01;3.00;;;1.00;;
6987;SDS011;3534;49.960;8.018;2023-05-10T03:56:27;1.00;;;0.77;;
6987;SDS011;3534;49.960;8.018;2023-05-10T03:58:55;2.93;;;0.87;;
6987;SDS011;3534;49.960;8.018;2023-05-10T04:01:23;0.87;;;0.87;;
6987;SDS011;3534;49.960;8.018;2023-05-10T04:03:49;1.80;;;0.87;;
6987;SDS011;3534;49.960;8.018;2023-05-10T04:06:16;1.33;;;0.77;;
6987;SDS011;3534;49.960;8.018;2023-05-10T04:08:43;1.80;;;0.87;;
6987;SDS011;3534;49.960;8.018;2023-05-10T04:11:10;2.33;;;1.10;;
6987;SDS011;3534;49.960;8.018;2023-05-10T04:13:38;3.13;;;0.97;;
6987;SDS011;3534;49.960;8.018;2023-05-10T04:16:04;2.30;;;0.83;;
6987;SDS011;3534;49.960;8.018;2023-05-10T04:18:33;3.17;;;1.10;;
6987;SDS011;3534;49.960;8.018;2023-05-10T04:20:59;2.27;;;0.90;;
6987;SDS011;3534;49.960;8.018;2023-05-10T04:23:26;4.73;;;1.00;;
6987;SDS011;3534;49.960;8.018;2023-05-10T04:25:58;2.27;;;1.10;;
6987;SDS011;3534;49.960;8.018;2023-05-10T04:28:25;3.60;;;1.37;;
6987;SDS011;3534;49.960;8.018;2023-05-10T04:30:52;1.33;;;1.13;;
6987;SDS011;3534;49.960;8.018;2023-05-10T04:33:19;1.00;;;0.90;;
6987;SDS011;3534;49.960;8.018;2023-05-10T04:35:47;1.53;;;1.00;;
6987;SDS011;3534;49.960;8.018;2023-05-10T04:38:13;2.10;;;1.27;;
6987;SDS011;3534;49.960;8.018;2023-05-10T04:40:40;4.00;;;1.30;;
6987;SDS011;3534;49.960;8.018;2023-05-10T04:43:06;3.37;;;1.00;;
6987;SDS011;3534;49.960;8.018;2023-05-10T04:45:33;1.60;;;1.40;;
6987;SDS011;3534;49.960;8.018;2023-05-10T04:48:00;2.70;;;1.47;;
6987;SDS011;3534;49.960;8.018;2023-05-10T04:50:26;2.17;;;1.60;;
6987;SDS011;3534;49.960;8.018;2023-05-10T04:52:54;4.47;;;1.67;;
6987;SDS011;3534;49.960;8.018;2023-05-10T04:55:21;8.90;;;3.03;;
6987;SDS011;3534;49.960;8.018;2023-05-10T04:57:48;2.23;;;1.93;;
6987;SDS011;3534;49.960;8.018;2023-05-10T05:00:15;4.10;;;3.40;;
6987;SDS011;3534;49.960;8.018;2023-05-10T05:02:42;2.00;;;1.40;;
6987;SDS011;3534;49.960;8.018;2023-05-10T05:05:10;3.37;;;1.57;;
6987;SDS011;3534;49.960;8.018;2023-05-10T05:07:36;2.40;;;1.47;;
6987;SDS011;3534;49.960;8.018;2023-05-10T05:10:05;2.90;;;1.87;;
6987;SDS011;3534;49.960;8.018;2023-05-10T05:12:33;5.47;;;1.70;;
6987;SDS011;3534;49.960;8.018;2023-05-10T05:15:00;11.00;;;1.90;;
6987;SDS011;3534;49.960;8.018;2023-05-10T05:17:27;3.33;;;1.50;;
6987;SDS011;3534;49.960;8.018;2023-05-10T05:19:56;3.63;;;1.63;;
6987;SDS011;3534;49.960;8.018;2023-05-10T05:22:22;3.23;;;1.20;;
6987;SDS011;3534;49.960;8.018;2023-05-10T05:24:52;5.43;;;1.90;;
6987;SDS011;3534;49.960;8.018;2023-05-10T05:27:20;3.00;;;2.07;;
6987;SDS011;3534;49.960;8.018;2023-05-10T05:29:49;2.97;;;1.70;;
6987;SDS011;3534;49.960;8.018;2023-05-10T05:32:16;2.53;;;1.50;;
6987;SDS011;3534;49.960;8.018;2023-05-10T05:34:43;17.70;;;2.23;;
6987;SDS011;3534;49.960;8.018;2023-05-10T05:37:12;14.60;;;1.80;;
6987;SDS011;3534;49.960;8.018;2023-05-10T05:39:39;2.53;;;1.50;;
6987;SDS011;3534;49.960;8.018;2023-05-10T05:42:06;15.47;;;2.13;;
6987;SDS011;3534;49.960;8.018;2023-05-10T05:44:34;3.87;;;1.93;;
6987;SDS011;3534;49.960;8.018;2023-05-10T05:47:00;2.90;;;1.90;;
6987;SDS011;3534;49.960;8.018;2023-05-10T05:49:27;2.90;;;2.10;;
6987;SDS011;3534;49.960;8.018;2023-05-10T05:51:54;2.40;;;2.00;;
6987;SDS011;3534;49.960;8.018;2023-05-10T05:54:24;4.60;;;1.67;;
6987;SDS011;3534;49.960;8.018;2023-05-10T05:56:53;2.70;;;1.60;;
6987;SDS011;3534;49.960;8.018;2023-05-10T05:59:20;4.40;;;1.83;;
6987;SDS011;3534;49.960;8.018;2023-05-10T06:01:48;5.57;;;1.47;;
6987;SDS011;3534;49.960;8.018;2023-05-10T06:04:15;3.83;;;1.83;;
6987;SDS011;3534;49.960;8.018;2023-05-10T06:06:41;6.87;;;2.00;;
6987;SDS011;3534;49.960;8.018;2023-05-10T06:09:08;3.90;;;1.67;;
6987;SDS011;3534;49.960;8.018;2023-05-10T06:11:35;4.00;;;1.90;;
6987;SDS011;3534;49.960;8.018;2023-05-10T06:14:03;4.13;;;1.80;;
6987;SDS011;3534;49.960;8.018;2023-05-10T06:16:32;4.33;;;1.87;;
6987;SDS011;3534;49.960;8.018;2023-05-10T06:19:00;3.83;;;1.70;;
6987;SDS011;3534;49.960;8.018;2023-05-10T06:21:27;2.23;;;1.97;;
6987;SDS011;3534;49.960;8.018;2023-05-10T06:23:53;4.57;;;1.50;;
6987;SDS011;3534;49.960;8.018;2023-05-10T06:26:20;4.20;;;1.90;;
6987;SDS011;3534;49.960;8.018;2023-05-10T06:28:47;3.50;;;1.70;;
6987;SDS011;3534;49.960;8.018;2023-05-10T06:31:14;8.17;;;2.50;;
6987;SDS011;3534;49.960;8.018;2023-05-10T06:33:41;2.23;;;2.03;;
6987;SDS011;3534;49.960;8.018;2023-05-10T06:36:09;3.00;;;1.83;;
6987;SDS011;3534;49.960;8.018;2023-05-10T06:38:36;5.03;;;1.97;;
6987;SDS011;3534;49.960;8.018;2023-05-10T06:41:02;8.50;;;2.43;;
6987;SDS011;3534;49.960;8.018;2023-05-10T06:43:29;3.73;;;1.90;;
6987;SDS011;3534;49.960;8.018;2023-05-10T06:45:56;3.30;;;2.23;;
6987;SDS011;3534;49.960;8.018;2023-05-10T06:48:23;6.33;;;1.70;;
6987;SDS011;3534;49.960;8.018;2023-05-10T06:50:50;4.97;;;2.13;;
6987;SDS011;3534;49.960;8.018;2023-05-10T06:53:17;2.60;;;1.93;;
6987;SDS011;3534;49.960;8.018;2023-05-10T06:55:44;3.83;;;2.20;;
6987;SDS011;3534;49.960;8.018;2023-05-10T06:58:11;4.00;;;1.63;;
6987;SDS011;3534;49.960;8.018;2023-05-10T07:00:38;7.33;;;1.83;;
6987;SDS011;3534;49.960;8.018;2023-05-10T07:03:05;4.40;;;1.67;;
6987;SDS011;3534;49.960;8.018;2023-05-10T07:05:32;1.77;;;1.50;;
6987;SDS011;3534;49.960;8.018;2023-05-10T07:07:59;1.77;;;1.30;;
6987;SDS011;3534;49.960;8.018;2023-05-10T07:10:27;3.90;;;1.50;;
6987;SDS011;3534;49.960;8.018;2023-05-10T07:12:54;5.70;;;1.73;;
6987;SDS011;3534;49.960;8.018;2023-05-10T07:15:21;5.60;;;1.80;;
6987;SDS011;3534;49.960;8.018;2023-05-10T07:17:48;7.97;;;1.60;;
6987;SDS011;3534;49.960;8.018;2023-05-10T07:20:16;3.30;;;2.10;;
6987;SDS011;3534;49.960;8.018;2023-05-10T07:22:43;3.83;;;2.00;;
6987;SDS011;3534;49.960;8.018;2023-05-10T07:25:10;5.03;;;1.73;;
6987;SDS011;3534;49.960;8.018;2023-05-10T07:27:38;1.97;;;1.60;;
6987;SDS011;3534;49.960;8.018;2023-05-10T07:30:05;6.03;;;2.10;;
6987;SDS011;3534;49.960;8.018;2023-05-10T07:32:33;4.87;;;2.10;;
6987;SDS011;3534;49.960;8.018;2023-05-10T07:34:59;3.40;;;1.50;;
6987;SDS011;3534;49.960;8.018;2023-05-10T07:37:26;5.60;;;1.63;;
6987;SDS011;3534;49.960;8.018;2023-05-10T07:39:53;6.83;;;1.80;;
6987;SDS011;3534;49.960;8.018;2023-05-10T07:42:21;5.80;;;1.60;;
6987;SDS011;3534;49.960;8.018;2023-05-10T07:44:49;1.97;;;1.40;;
6987;SDS011;3534;49.960;8.018;2023-05-10T07:47:16;7.90;;;1.73;;
6987;SDS011;3534;49.960;8.018;2023-05-10T07:49:42;1.63;;;1.33;;
6987;SDS011;3534;49.960;8.018;2023-05-10T07:52:09;8.60;;;1.83;;
6987;SDS011;3534;49.960;8.018;2023-05-10T07:54:36;2.77;;;1.90;;
6987;SDS011;3534;49.960;8.018;2023-05-10T07:57:03;2.90;;;1.40;;
6987;SDS011;3534;49.960;8.018;2023-05-10T07:59:29;1.60;;;1.10;;
6987;SDS011;3534;49.960;8.018;2023-05-10T08:01:58;1.70;;;1.40;;
6987;SDS011;3534;49.960;8.018;2023-05-10T08:04:25;3.40;;;1.57;;
6987;SDS011;3534;49.960;8.018;2023-05-10T08:06:52;2.50;;;1.73;;
6987;SDS011;3534;49.960;8.018;2023-05-10T08:09:18;2.23;;;1.53;;
6987;SDS011;3534;49.960;8.018;2023-05-10T08:11:48;5.97;;;1.37;;
6987;SDS011;3534;49.960;8.018;2023-05-10T08:14:15;2.50;;;1.57;;
6987;SDS011;3534;49.960;8.018;2023-05-10T08:16:42;1.90;;;1.43;;
6987;SDS011;3534;49.960;8.018;2023-05-10T08:19:10;6.43;;;1.37;;
6987;SDS011;3534;49.960;8.018;2023-05-10T08:21:37;1.50;;;1.20;;
6987;SDS011;3534;49.960;8.018;2023-05-10T08:24:05;2.53;;;1.30;;
6987;SDS011;3534;49.960;8.018;2023-05-10T08:26:32;7.60;;;1.30;;
6987;SDS011;3534;49.960;8.018;2023-05-10T08:28:59;0.97;;;0.87;;
6987;SDS011;3534;49.960;8.018;2023-05-10T08:31:26;1.40;;;1.10;;
6987;SDS011;3534;49.960;8.018;2023-05-10T08:33:52;1.73;;;1.00;;
6987;SDS011;3534;49.960;8.018;2023-05-10T08:36:20;1.87;;;1.00;;
6987;SDS011;3534;49.960;8.018;2023-05-10T08:38:49;1.70;;;1.60;;
6987;SDS011;3534;49.960;8.018;2023-05-10T08:41:17;2.97;;;1.00;;
6987;SDS011;3534;49.960;8.018;2023-05-10T08:43:45;2.40;;;0.80;;
6987;SDS011;3534;49.960;8.018;2023-05-10T08:46:13;1.33;;;0.70;;
6987;SDS011;3534;49.960;8.018;2023-05-10T08:48:42;2.50;;;0.83;;
6987;SDS011;3534;49.960;8.018;2023-05-10T08:51:10;2.80;;;0.60;;
6987;SDS011;3534;49.960;8.018;2023-05-10T08:53:41;5.90;;;1.33;;
6987;SDS011;3534;49.960;8.018;2023-05-10T08:56:08;2.10;;;0.60;;
6987;SDS011;3534;49.960;8.018;2023-05-10T08:58:35;2.97;;;0.87;;
6987;SDS011;3534;49.960;8.018;2023-05-10T09:01:02;2.50;;;0.80;;
6987;SDS011;3534;49.960;8.018;2023-05-10T09:03:30;2.10;;;0.90;;
6987;SDS011;3534;49.960;8.018;2023-05-10T09:05:57;0.70;;;0.60;;
6987;SDS011;3534;49.960;8.018;2023-05-10T09:08:25;4.00;;;0.70;;
6987;SDS011;3534;49.960;8.018;2023-05-10T09:10:53;0.70;;;0.40;;
6987;SDS011;3534;49.960;8.018;2023-05-10T09:13:21;0.97;;;0.60;;
6987;SDS011;3534;49.960;8.018;2023-05-10T09:15:49;1.50;;;0.50;;
6987;SDS011;3534;49.960;8.018;2023-05-10T09:18:16;2.00;;;0.40;;
6987;SDS011;3534;49.960;8.018;2023-05-10T09:20:43;1.97;;;0.60;;
6987;SDS011;3534;49.960;8.018;2023-05-10T09:23:10;0.73;;;0.50;;
6987;SDS011;3534;49.960;8.018;2023-05-10T09:25:37;0.90;;;0.60;;
6987;SDS011;3534;49.960;8.018;2023-05-10T09:28:07;1.80;;;0.50;;
6987;SDS011;3534;49.960;8.018;2023-05-10T09:30:34;0.70;;;0.40;;
6987;SDS011;3534;49.960;8.018;2023-05-10T09:33:01;0.60;;;0.40;;
6987;SDS011;3534;49.960;8.018;2023-05-10T09:35:29;0.60;;;0.50;;
6987;SDS011;3534;49.960;8.018;2023-05-10T09:37:57;0.70;;;0.40;;
6987;SDS011;3534;49.960;8.018;2023-05-10T09:40:26;1.23;;;0.53;;
6987;SDS011;3534;49.960;8.018;2023-05-10T09:42:54;1.33;;;0.50;;
6987;SDS011;3534;49.960;8.018;2023-05-10T09:45:24;0.70;;;0.50;;
6987;SDS011;3534;49.960;8.018;2023-05-10T09:47:52;4.40;;;0.90;;
6987;SDS011;3534;49.960;8.018;2023-05-10T09:50:19;1.90;;;0.40;;
6987;SDS011;3534;49.960;8.018;2023-05-10T09:52:47;1.83;;;0.50;;
6987;SDS011;3534;49.960;8.018;2023-05-10T09:55:15;0.90;;;0.80;;
6987;SDS011;3534;49.960;8.018;2023-05-10T09:57:42;1.13;;;0.70;;
6987;SDS011;3534;49.960;8.018;2023-05-10T10:00:09;0.90;;;0.70;;
6987;SDS011;3534;49.960;8.018;2023-05-10T10:02:43;9.23;;;0.67;;
6987;SDS011;3534;49.960;8.018;2023-05-10T10:05:11;1.73;;;0.93;;
6987;SDS011;3534;49.960;8.018;2023-05-10T10:07:39;1.80;;;1.33;;
6987;SDS011;3534;49.960;8.018;2023-05-10T10:10:06;2.43;;;1.10;;
6987;SDS011;3534;49.960;8.018;2023-05-10T10:12:36;1.30;;;0.70;;
6987;SDS011;3534;49.960;8.018;2023-05-10T10:15:03;2.30;;;0.60;;
6987;SDS011;3534;49.960;8.018;2023-05-10T10:17:31;1.30;;;0.77;;
6987;SDS011;3534;49.960;8.018;2023-05-10T10:20:03;1.27;;;0.50;;
6987;SDS011;3534;49.960;8.018;2023-05-10T10:22:31;0.97;;;0.50;;
6987;SDS011;3534;49.960;8.018;2023-05-10T10:24:58;2.07;;;0.73;;
6987;SDS011;3534;49.960;8.018;2023-05-10T10:27:26;1.03;;;0.50;;
6987;SDS011;3534;49.960;8.018;2023-05-10T10:30:02;1.10;;;0.70;;
6987;SDS011;3534;49.960;8.018;2023-05-10T10:32:37;6.00;;;0.60;;
6987;SDS011;3534;49.960;8.018;2023-05-10T10:35:19;1.00;;;0.70;;
6987;SDS011;3534;49.960;8.018;2023-05-10T10:37:47;2.20;;;0.67;;
6987;SDS011;3534;49.960;8.018;2023-05-10T10:40:25;1.20;;;0.70;;
6987;SDS011;3534;49.960;8.018;2023-05-10T10:42:53;1.27;;;0.50;;
6987;SDS011;3534;49.960;8.018;2023-05-10T10:45:20;0.90;;;0.47;;
6987;SDS011;3534;49.960;8.018;2023-05-10T10:47:47;6.23;;;0.87;;
6987;SDS011;3534;49.960;8.018;2023-05-10T10:50:14;2.47;;;1.00;;
6987;SDS011;3534;49.960;8.018;2023-05-10T10:52:43;3.70;;;1.00;;
6987;SDS011;3534;49.960;8.018;2023-05-10T10:55:14;1.43;;;0.77;;
6987;SDS011;3534;49.960;8.018;2023-05-10T10:57:45;2.93;;;0.70;;
6987;SDS011;3534;49.960;8.018;2023-05-10T11:00:26;7.10;;;0.70;;
6987;SDS011;3534;49.960;8.018;2023-05-10T11:02:55;1.33;;;0.50;;
6987;SDS011;3534;49.960;8.018;2023-05-10T11:05:24;1.07;;;0.60;;
6987;SDS011;3534;49.960;8.018;2023-05-10T11:08:00;4.20;;;0.90;;
6987;SDS011;3534;49.960;8.018;2023-05-10T11:10:33;0.80;;;0.40;;
6987;SDS011;3534;49.960;8.018;2023-05-10T11:13:01;0.60;;;0.40;;
6987;SDS011;3534;49.960;8.018;2023-05-10T11:15:29;0.70;;;0.50;;
6987;SDS011;3534;49.960;8.018;2023-05-10T11:17:56;5.73;;;0.70;;
6987;SDS011;3534;49.960;8.018;2023-05-10T11:20:23;1.27;;;0.60;;
6987;SDS011;3534;49.960;8.018;2023-05-10T11:23:10;0.70;;;0.70;;
6987;SDS011;3534;49.960;8.018;2023-05-10T11:25:40;1.13;;;0.70;;
6987;SDS011;3534;49.960;8.018;2023-05-10T11:28:08;2.53;;;0.77;;
6987;SDS011;3534;49.960;8.018;2023-05-10T11:30:36;2.00;;;0.50;;
6987;SDS011;3534;49.960;8.018;2023-05-10T11:33:03;3.73;;;1.33;;
6987;SDS011;3534;49.960;8.018;2023-05-10T11:35:31;2.30;;;0.60;;
6987;SDS011;3534;49.960;8.018;2023-05-10T11:38:06;1.10;;;0.60;;
6987;SDS011;3534;49.960;8.018;2023-05-10T11:40:33;1.63;;;0.70;;
6987;SDS011;3534;49.960;8.018;2023-05-10T11:42:59;2.80;;;0.83;;
6987;SDS011;3534;49.960;8.018;2023-05-10T11:45:27;1.97;;;0.80;;
6987;SDS011;3534;49.960;8.018;2023-05-10T11:47:54;1.50;;;0.63;;
6987;SDS011;3534;49.960;8.018;2023-05-10T11:50:21;0.97;;;0.60;;
6987;SDS011;3534;49.960;8.018;2023-05-10T11:52:50;1.40;;;0.70;;
6987;SDS011;3534;49.960;8.018;2023-05-10T11:55:18;3.80;;;0.80;;
6987;SDS011;3534;49.960;8.018;2023-05-10T11:57:45;1.37;;;0.60;;
6987;SDS011;3534;49.960;8.018;2023-05-10T12:00:12;0.80;;;0.50;;
6987;SDS011;3534;49.960;8.018;2023-05-10T12:02:39;1.10;;;0.70;;
6987;SDS011;3534;49.960;8.018;2023-05-10T12:05:06;3.17;;;0.63;;
6987;SDS011;3534;49.960;8.018;2023-05-10T12:07:34;0.83;;;0.50;;
6987;SDS011;3534;49.960;8.018;2023-05-10T12:10:07;2.50;;;0.90;;
6987;SDS011;3534;49.960;8.018;2023-05-10T12:12:39;0.90;;;0.53;;
6987;SDS011;3534;49.960;8.018;2023-05-10T12:15:10;6.37;;;1.00;;
6987;SDS011;3534;49.960;8.018;2023-05-10T12:17:37;2.43;;;0.90;;
6987;SDS011;3534;49.960;8.018;2023-05-10T12:20:15;1.90;;;0.80;;
6987;SDS011;3534;49.960;8.018;2023-05-10T12:22:46;2.30;;;0.60;;
6987;SDS011;3534;49.960;8.018;2023-05-10T12:25:15;2.77;;;0.77;;
6987;SDS011;3534;49.960;8.018;2023-05-10T12:27:48;3.77;;;0.80;;
6987;SDS011;3534;49.960;8.018;2023-05-10T12:30:20;1.17;;;0.50;;
6987;SDS011;3534;49.960;8.018;2023-05-10T12:32:47;1.00;;;0.57;;
6987;SDS011;3534;49.960;8.018;2023-05-10T12:35:15;4.60;;;0.60;;
6987;SDS011;3534;49.960;8.018;2023-05-10T12:37:42;1.00;;;0.60;;
6987;SDS011;3534;49.960;8.018;2023-05-10T12:40:09;1.00;;;0.53;;
6987;SDS011;3534;49.960;8.018;2023-05-10T12:42:37;1.20;;;0.60;;
6987;SDS011;3534;49.960;8.018;2023-05-10T12:45:07;1.20;;;0.60;;
6987;SDS011;3534;49.960;8.018;2023-05-10T12:47:35;0.70;;;0.50;;
6987;SDS011;3534;49.960;8.018;2023-05-10T12:50:02;2.27;;;0.77;;
6987;SDS011;3534;49.960;8.018;2023-05-10T12:52:29;1.13;;;0.60;;
6987;SDS011;3534;49.960;8.018;2023-05-10T12:54:57;2.20;;;0.63;;
6987;SDS011;3534;49.960;8.018;2023-05-10T12:57:23;1.67;;;0.70;;
6987;SDS011;3534;49.960;8.018;2023-05-10T12:59:50;1.30;;;0.57;;
6987;SDS011;3534;49.960;8.018;2023-05-10T13:02:18;1.67;;;0.60;;
6987;SDS011;3534;49.960;8.018;2023-05-10T13:04:46;3.33;;;0.97;;
6987;SDS011;3534;49.960;8.018;2023-05-10T13:07:12;1.00;;;0.70;;
6987;SDS011;3534;49.960;8.018;2023-05-10T13:09:39;2.30;;;0.60;;
6987;SDS011;3534;49.960;8.018;2023-05-10T13:12:06;1.73;;;0.70;;
6987;SDS011;3534;49.960;8.018;2023-05-10T13:14:33;2.30;;;1.10;;
6987;SDS011;3534;49.960;8.018;2023-05-10T13:16:59;2.10;;;0.70;;
6987;SDS011;3534;49.960;8.018;2023-05-10T13:19:27;6.00;;;0.80;;
6987;SDS011;3534;49.960;8.018;2023-05-10T13:21:54;9.70;;;1.30;;
6987;SDS011;3534;49.960;8.018;2023-05-10T13:24:21;3.20;;;0.70;;
6987;SDS011;3534;49.960;8.018;2023-05-10T13:26:47;2.57;;;1.00;;
6987;SDS011;3534;49.960;8.018;2023-05-10T13:29:14;1.60;;;0.70;;
6987;SDS011;3534;49.960;8.018;2023-05-10T13:31:43;2.60;;;0.83;;
6987;SDS011;3534;49.960;8.018;2023-05-10T13:34:09;1.70;;;0.80;;
6987;SDS011;3534;49.960;8.018;2023-05-10T13:36:37;2.27;;;0.70;;
6987;SDS011;3534;49.960;8.018;2023-05-10T13:39:04;5.50;;;0.70;;
6987;SDS011;3534;49.960;8.018;2023-05-10T13:41:31;1.30;;;1.17;;
6987;SDS011;3534;49.960;8.018;2023-05-10T13:43:58;0.93;;;0.63;;
6987;SDS011;3534;49.960;8.018;2023-05-10T13:46:24;5.30;;;1.23;;
6987;SDS011;3534;49.960;8.018;2023-05-10T13:48:51;2.33;;;0.80;;
6987;SDS011;3534;49.960;8.018;2023-05-10T13:51:18;2.97;;;0.87;;
6987;SDS011;3534;49.960;8.018;2023-05-10T13:53:46;1.10;;;0.77;;
6987;SDS011;3534;49.960;8.018;2023-05-10T13:56:13;1.50;;;0.80;;
6987;SDS011;3534;49.960;8.018;2023-05-10T13:58:39;1.10;;;0.70;;
6987;SDS011;3534;49.960;8.018;2023-05-10T14:01:06;2.50;;;0.90;;
6987;SDS011;3534;49.960;8.018;2023-05-10T14:03:33;2.60;;;1.00;;
6987;SDS011;3534;49.960;8.018;2023-05-10T14:06:00;2.50;;;0.90;;
6987;SDS011;3534;49.960;8.018;2023-05-10T14:08:26;5.23;;;1.00;;
6987;SDS011;3534;49.960;8.018;2023-05-10T14:10:54;6.10;;;1.20;;
6987;SDS011;3534;49.960;8.018;2023-05-10T14:13:22;2.53;;;0.80;;
6987;SDS011;3534;49.960;8.018;2023-05-10T14:15:49;1.63;;;0.73;;
6987;SDS011;3534;49.960;8.018;2023-05-10T14:18:16;1.30;;;0.70;;
6987;SDS011;3534;49.960;8.018;2023-05-10T14:20:43;3.40;;;1.00;;
6987;SDS011;3534;49.960;8.018;2023-05-10T14:23:10;10.40;;;0.80;;
6987;SDS011;3534;49.960;8.018;2023-05-10T14:25:37;1.80;;;1.33;;
6987;SDS011;3534;49.960;8.018;2023-05-10T14:28:05;4.27;;;1.07;;
6987;SDS011;3534;49.960;8.018;2023-05-10T14:30:32;2.67;;;0.93;;
6987;SDS011;3534;49.960;8.018;2023-05-10T14:32:59;2.93;;;1.20;;
6987;SDS011;3534;49.960;8.018;2023-05-10T14:35:26;3.33;;;1.00;;
6987;SDS011;3534;49.960;8.018;2023-05-10T14:37:53;4.07;;;1.40;;
6987;SDS011;3534;49.960;8.018;2023-05-10T14:40:20;5.90;;;1.30;;
6987;SDS011;3534;49.960;8.018;2023-05-10T14:42:46;6.07;;;1.30;;
6987;SDS011;3534;49.960;8.018;2023-05-10T14:45:14;7.10;;;1.00;;
6987;SDS011;3534;49.960;8.018;2023-05-10T14:47:41;3.13;;;0.80;;
6987;SDS011;3534;49.960;8.018;2023-05-10T14:50:08;2.00;;;1.00;;
6987;SDS011;3534;49.960;8.018;2023-05-10T14:52:35;2.90;;;0.77;;
6987;SDS011;3534;49.960;8.018;2023-05-10T14:55:01;6.10;;;1.40;;
6987;SDS011;3534;49.960;8.018;2023-05-10T14:57:28;2.70;;;1.07;;
6987;SDS011;3534;49.960;8.018;2023-05-10T14:59:55;3.20;;;1.03;;
6987;SDS011;3534;49.960;8.018;2023-05-10T15:02:23;3.93;;;1.43;;
6987;SDS011;3534;49.960;8.018;2023-05-10T15:04:50;2.07;;;0.80;;
6987;SDS011;3534;49.960;8.018;2023-05-10T15:07:16;3.90;;;0.80;;
6987;SDS011;3534;49.960;8.018;2023-05-10T15:09:43;2.53;;;0.90;;
6987;SDS011;3534;49.960;8.018;2023-05-10T15:12:10;3.80;;;0.83;;
6987;SDS011;3534;49.960;8.018;2023-05-10T15:14:37;2.10;;;1.10;;
6987;SDS011;3534;49.960;8.018;2023-05-10T15:17:05;1.87;;;1.10;;
6987;SDS011;3534;49.960;8.018;2023-05-10T15:19:34;6.40;;;1.00;;
6987;SDS011;3534;49.960;8.018;2023-05-10T15:22:01;1.97;;;0.97;;